createdAt,value
2018-11-14T01:04:57.896Z,24.95
2018-11-14T01:07:30.492Z,31.45
2018-11-14T01:10:03.415Z,35.43
2018-11-14T01:12:36.036Z,43.42
2018-11-14T01:15:12.192Z,23.15
2018-11-14T01:17:44.825Z,24.85
2018-11-14T01:20:19.578Z,32.00
2018-11-14T01:22:52.147Z,26.73
2018-11-14T01:25:24.796Z,28.70
2018-11-14T01:27:57.665Z,23.20
2018-11-14T01:30:30.132Z,28.75
2018-11-14T01:33:02.797Z,24.80
2018-11-14T01:35:35.450Z,28.32
2018-11-14T01:38:08.015Z,26.90
2018-11-14T01:40:40.536Z,27.25
2018-11-14T01:43:13.168Z,21.17
2018-11-14T01:45:45.793Z,26.52
2018-11-14T01:48:18.454Z,32.40
2018-11-14T01:50:51.016Z,27.17
2018-11-14T01:53:23.571Z,27.42
2018-11-14T01:55:57.133Z,33.85
2018-11-14T01:58:29.670Z,22.60
2018-11-14T02:01:02.320Z,32.85
2018-11-14T02:03:35.031Z,35.20
2018-11-14T02:06:07.660Z,35.10
2018-11-14T02:08:40.331Z,31.87
2018-11-14T02:11:12.927Z,27.07
2018-11-14T02:13:45.544Z,20.70
2018-11-14T02:16:18.156Z,30.02
2018-11-14T02:18:51.065Z,32.75
2018-11-14T02:21:23.686Z,32.80
2018-11-14T02:23:56.261Z,30.92
2018-11-14T02:26:28.810Z,27.25
2018-11-14T02:29:01.341Z,31.97
2018-11-14T02:31:33.932Z,29.65
2018-11-14T02:34:06.498Z,24.80
2018-11-14T02:36:39.067Z,28.60
2018-11-14T02:39:11.643Z,31.27
2018-11-14T02:41:44.218Z,22.70
2018-11-14T02:44:16.793Z,28.20
2018-11-14T02:46:49.383Z,26.02
2018-11-14T02:49:21.987Z,27.90
2018-11-14T02:51:54.516Z,31.60
2018-11-14T02:54:27.110Z,31.70
2018-11-14T02:56:59.638Z,33.53
2018-11-14T02:59:32.207Z,30.90
2018-11-14T03:02:05.576Z,34.27
2018-11-14T03:04:38.130Z,26.60
2018-11-14T03:07:10.807Z,30.88
2018-11-14T03:09:43.451Z,27.60
2018-11-14T03:12:16.124Z,28.30
2018-11-14T03:14:48.719Z,23.60
2018-11-14T03:17:21.283Z,22.52
2018-11-14T03:19:54.375Z,26.35
2018-11-14T03:22:26.951Z,23.95
2018-11-14T03:24:59.476Z,28.90
2018-11-14T03:27:32.011Z,25.27
2018-11-14T03:30:06.652Z,25.35
2018-11-14T03:32:39.903Z,29.63
2018-11-14T03:35:13.158Z,21.00
2018-11-14T03:37:45.763Z,25.77
2018-11-14T03:40:18.452Z,23.90
2018-11-14T03:42:51.054Z,20.12
2018-11-14T03:45:23.580Z,25.97
2018-11-14T03:47:56.207Z,20.23
2018-11-14T03:50:28.797Z,26.40
2018-11-14T03:53:01.350Z,23.25
2018-11-14T03:55:34.145Z,24.15
2018-11-14T03:58:06.834Z,25.10
2018-11-14T04:00:39.324Z,25.60
2018-11-14T04:03:12.023Z,23.40
2018-11-14T04:05:44.541Z,24.95
2018-11-14T04:08:17.116Z,24.80
2018-11-14T04:10:49.737Z,22.10
2018-11-14T04:13:22.312Z,30.65
2018-11-14T04:15:54.950Z,29.20
2018-11-14T04:18:27.546Z,26.37
2018-11-14T04:21:00.140Z,21.07
2018-11-14T04:23:32.734Z,29.65
2018-11-14T04:26:05.402Z,22.22
2018-11-14T04:28:37.992Z,21.93
2018-11-14T04:31:10.479Z,25.40
2018-11-14T04:33:43.313Z,22.93
2018-11-14T04:36:15.894Z,19.80
2018-11-14T04:38:48.503Z,24.57
2018-11-14T04:41:21.008Z,20.70
2018-11-14T04:43:53.613Z,29.67
2018-11-14T04:46:26.143Z,22.22
2018-11-14T04:48:58.728Z,22.02
2018-11-14T04:51:31.255Z,21.48
2018-11-14T04:54:03.906Z,21.42
2018-11-14T04:56:36.538Z,20.08
2018-11-14T04:59:09.108Z,26.93
2018-11-14T05:01:41.696Z,24.75
2018-11-14T05:04:14.345Z,28.83
2018-11-14T05:06:46.929Z,28.87
2018-11-14T05:09:19.479Z,27.42
2018-11-14T05:11:52.104Z,24.43
2018-11-14T05:14:24.706Z,26.02
2018-11-14T05:16:57.334Z,23.98
2018-11-14T05:19:30.237Z,20.77
2018-11-14T05:22:02.816Z,25.15
2018-11-14T05:24:35.491Z,25.65
2018-11-14T05:27:08.047Z,21.90
2018-11-14T05:29:40.630Z,18.87
2018-11-14T05:32:13.262Z,21.52
2018-11-14T05:34:45.872Z,25.60
2018-11-14T05:37:18.492Z,24.18
2018-11-14T05:39:51.327Z,28.62
2018-11-14T05:42:23.804Z,22.65
2018-11-14T05:44:56.429Z,16.85
2018-11-14T05:47:29.047Z,23.20
2018-11-14T05:50:01.683Z,22.67
2018-11-14T05:52:34.213Z,26.82
2018-11-14T05:55:07.449Z,26.48
2018-11-14T05:57:40.144Z,30.00
2018-11-14T06:00:30.505Z,30.60
2018-11-14T06:03:03.893Z,28.15
2018-11-14T06:05:36.525Z,29.42
2018-11-14T06:08:09.112Z,22.32
2018-11-14T06:10:41.821Z,22.95
2018-11-14T06:13:14.640Z,22.40
2018-11-14T06:15:47.215Z,31.33
2018-11-14T06:18:19.798Z,24.87
2018-11-14T06:20:52.405Z,22.13
2018-11-14T06:23:24.985Z,26.52
2018-11-14T06:25:57.581Z,29.20
2018-11-14T06:28:30.246Z,26.25
2018-11-14T06:31:02.803Z,27.73
2018-11-14T06:33:35.413Z,23.22
2018-11-14T06:36:07.987Z,23.92
2018-11-14T06:38:40.562Z,31.90
2018-11-14T06:41:13.118Z,28.38
2018-11-14T06:43:45.713Z,26.17
2018-11-14T06:46:18.254Z,26.60
2018-11-14T06:48:50.815Z,26.10
2018-11-14T06:51:23.399Z,38.50
2018-11-14T06:53:56.306Z,31.15
2018-11-14T06:56:28.888Z,24.30
2018-11-14T06:59:01.579Z,38.75
2018-11-14T07:01:34.175Z,34.45
2018-11-14T07:11:11.543Z,26.57
2018-11-14T07:13:44.082Z,38.98
2018-11-14T07:16:16.636Z,39.15
2018-11-14T07:18:49.272Z,27.30
2018-11-14T07:21:21.814Z,21.87
2018-11-14T07:23:54.406Z,23.25
2018-11-14T07:26:27.036Z,19.92
2018-11-14T07:28:59.568Z,21.95
2018-11-14T07:31:32.138Z,20.52
2018-11-14T07:34:05.404Z,17.40
2018-11-14T07:36:38.009Z,20.52
2018-11-14T07:39:10.560Z,24.95
2018-11-14T07:41:43.204Z,20.37
2018-11-14T07:44:15.850Z,15.38
2018-11-14T07:46:48.459Z,15.78
2018-11-14T07:49:21.150Z,19.30
2018-11-14T07:51:53.805Z,14.03
2018-11-14T07:54:26.424Z,15.23
2018-11-14T07:56:59.020Z,19.73
2018-11-14T07:59:31.702Z,11.85
2018-11-14T08:02:04.830Z,16.90
2018-11-14T08:04:37.501Z,17.23
2018-11-14T08:07:10.041Z,15.45
2018-11-14T08:09:42.639Z,13.90
2018-11-14T08:12:15.226Z,13.85
2018-11-14T08:14:47.848Z,14.95
2018-11-14T08:17:20.393Z,12.80
2018-11-14T08:19:52.981Z,12.90
2018-11-14T08:22:25.646Z,11.50
2018-11-14T08:24:58.263Z,16.40
2018-11-14T08:27:30.834Z,12.88
2018-11-14T08:30:03.647Z,19.02
2018-11-14T08:32:36.599Z,24.40
2018-11-14T08:35:10.118Z,14.98
2018-11-14T08:37:42.744Z,15.38
2018-11-14T08:40:15.409Z,10.55
2018-11-14T08:42:49.066Z,13.95
2018-11-14T08:45:21.675Z,12.37
2018-11-14T08:47:54.346Z,13.70
2018-11-14T08:50:27.028Z,11.43
2018-11-14T08:52:59.894Z,8.77
2018-11-14T08:55:32.755Z,8.60
2018-11-14T08:58:08.736Z,8.17
2018-11-14T09:00:41.330Z,6.57
2018-11-14T09:03:14.327Z,9.27
2018-11-14T09:05:46.940Z,9.77
2018-11-14T09:08:19.507Z,11.97
2018-11-14T09:10:52.161Z,6.50
2018-11-14T09:13:24.700Z,9.73
2018-11-14T09:15:57.307Z,8.97
2018-11-14T09:18:29.989Z,8.97
2018-11-14T09:21:02.547Z,9.03
2018-11-14T09:23:35.282Z,6.17
2018-11-14T09:26:07.912Z,8.63
2018-11-14T09:28:40.484Z,7.87
2018-11-14T09:31:13.184Z,13.87
2018-11-14T09:33:45.822Z,8.73
2018-11-14T09:36:18.489Z,11.73
2018-11-14T09:38:51.177Z,6.30
2018-11-14T09:41:23.786Z,9.30
2018-11-14T09:43:56.377Z,6.27
2018-11-14T09:46:28.913Z,8.57
2018-11-14T09:49:01.524Z,11.77
2018-11-14T09:51:34.700Z,10.43
2018-11-14T09:54:07.319Z,6.97
2018-11-14T09:56:39.999Z,7.43
2018-11-14T09:59:12.585Z,8.40
2018-11-14T10:01:45.181Z,11.00
2018-11-14T10:04:17.812Z,9.10
2018-11-14T10:06:50.390Z,8.10
2018-11-14T10:09:23.046Z,7.87
2018-11-14T10:11:55.816Z,7.97
2018-11-14T10:14:28.446Z,7.57
2018-11-14T10:17:01.083Z,7.33
2018-11-14T10:19:33.684Z,6.93
2018-11-14T10:22:06.299Z,8.30
2018-11-14T10:24:38.917Z,7.73
2018-11-14T10:27:11.471Z,12.90
2018-11-14T10:29:44.072Z,9.50
2018-11-14T10:32:16.624Z,9.30
2018-11-14T10:34:49.245Z,9.60
2018-11-14T10:37:21.899Z,8.53
2018-11-14T10:39:54.493Z,8.43
2018-11-14T10:42:27.079Z,8.80
2018-11-14T10:44:59.665Z,6.90
2018-11-14T10:47:32.244Z,7.60
2018-11-14T10:50:06.789Z,5.93
2018-11-14T10:52:39.596Z,7.17
2018-11-14T10:56:41.639Z,10.93
2018-11-14T10:59:14.290Z,10.23
2018-11-14T11:01:52.663Z,11.63
2018-11-14T11:04:30.824Z,8.40
2018-11-14T11:07:09.012Z,9.33
2018-11-14T11:09:47.265Z,7.20
2018-11-14T11:12:25.412Z,10.27
2018-11-14T11:15:03.717Z,6.50
2018-11-14T11:18:14.112Z,9.43
2018-11-14T11:20:46.757Z,11.93
2018-11-14T11:23:19.414Z,7.40
2018-11-14T11:25:52.063Z,9.80
2018-11-14T11:28:25.283Z,8.40
2018-11-14T11:34:08.849Z,11.23
2018-11-14T11:36:41.838Z,7.40
2018-11-14T11:39:15.732Z,8.97
2018-11-14T11:41:48.399Z,7.23
2018-11-14T11:44:20.929Z,7.73
2018-11-14T11:46:53.572Z,6.40
2018-11-14T11:49:26.165Z,9.13
2018-11-14T11:51:58.789Z,7.53
2018-11-14T11:54:31.387Z,12.27
2018-11-14T11:57:04.324Z,9.30
2018-11-14T11:59:37.079Z,4.43
2018-11-14T12:02:09.563Z,7.30
2018-11-14T12:04:42.165Z,7.00
2018-11-14T12:07:14.911Z,6.13
2018-11-14T12:09:47.505Z,7.60
2018-11-14T12:12:20.115Z,6.13
2018-11-14T12:14:52.936Z,7.57
2018-11-14T12:17:25.575Z,8.40
2018-11-14T12:19:58.262Z,8.40
2018-11-14T12:22:30.889Z,6.57
2018-11-14T12:25:03.588Z,9.23
2018-11-14T12:27:36.361Z,11.00
2018-11-14T12:30:16.176Z,7.87
2018-11-14T12:32:48.765Z,7.03
2018-11-14T12:35:21.341Z,7.10
2018-11-14T12:37:53.868Z,19.97
2018-11-14T12:40:26.493Z,4.00
2018-11-14T12:42:59.084Z,5.53
2018-11-14T12:45:31.655Z,4.60
2018-11-14T12:48:04.644Z,8.67
2018-11-14T12:50:37.257Z,5.50
2018-11-14T12:53:09.816Z,5.33
2018-11-14T12:55:42.346Z,9.00
2018-11-14T12:58:14.967Z,7.13
2018-11-14T13:00:47.625Z,7.80
2018-11-14T13:03:20.221Z,7.93
2018-11-14T13:05:52.856Z,3.73
2018-11-14T13:08:25.497Z,3.80
2018-11-14T13:10:58.082Z,5.73
2018-11-14T13:13:46.832Z,5.90
2018-11-14T13:17:48.895Z,10.97
2018-11-14T13:20:22.797Z,5.43
2018-11-14T13:23:10.341Z,5.13
2018-11-14T13:25:42.916Z,11.93
2018-11-14T13:28:15.598Z,5.33
2018-11-14T13:30:48.393Z,4.93
2018-11-14T13:33:21.018Z,6.20
2018-11-14T13:35:53.632Z,6.10
2018-11-14T13:38:26.212Z,5.43
2018-11-14T13:40:58.804Z,4.90
2018-11-14T13:43:31.391Z,4.70
2018-11-14T13:46:04.160Z,6.50
2018-11-14T13:48:36.782Z,3.67
2018-11-14T13:51:09.643Z,3.23
2018-11-14T13:53:42.025Z,3.13
2018-11-14T13:56:14.656Z,5.43
2018-11-14T13:58:47.248Z,2.40
2018-11-14T14:01:19.945Z,2.43
2018-11-14T14:03:52.426Z,8.50
2018-11-14T14:06:25.003Z,5.10
2018-11-14T14:08:57.611Z,5.63
2018-11-14T14:11:30.237Z,5.00
2018-11-14T14:14:08.581Z,6.10
2018-11-14T14:21:23.697Z,2.53
2018-11-14T14:23:56.304Z,4.27
2018-11-14T14:26:28.963Z,2.70
2018-11-14T14:29:01.559Z,4.00
2018-11-14T14:31:34.202Z,3.07
2018-11-14T14:34:06.815Z,4.47
2018-11-14T14:36:39.448Z,9.00
2018-11-14T14:39:12.849Z,7.63
2018-11-14T14:41:45.511Z,4.80
2018-11-14T14:44:18.116Z,4.80
2018-11-14T14:46:50.787Z,9.70
2018-11-14T14:49:23.386Z,6.63
2018-11-14T14:51:56.004Z,8.80
2018-11-14T14:54:28.552Z,14.87
2018-11-14T14:57:01.155Z,6.43
2018-11-14T14:59:33.725Z,5.00
2018-11-14T15:02:06.457Z,5.03
2018-11-14T15:04:39.070Z,4.30
2018-11-14T15:07:11.608Z,7.13
2018-11-14T15:09:44.366Z,4.17
2018-11-14T15:12:17.018Z,5.63
2018-11-14T15:14:49.833Z,8.93
2018-11-14T15:17:22.468Z,6.10
2018-11-14T15:19:55.118Z,8.47
2018-11-14T15:22:27.770Z,3.53
2018-11-14T15:25:00.379Z,10.07
2018-11-14T15:27:32.928Z,10.30
2018-11-14T15:30:07.894Z,7.20
2018-11-14T15:32:40.884Z,9.33
2018-11-14T15:35:13.844Z,5.53
2018-11-14T15:37:46.409Z,8.13
2018-11-14T15:40:20.230Z,5.30
2018-11-14T15:42:53.009Z,2.92
2018-11-14T15:45:27.760Z,8.58
2018-11-14T15:48:00.429Z,9.35
2018-11-14T15:50:33.027Z,12.18
2018-11-14T15:53:05.774Z,9.05
2018-11-14T15:55:38.406Z,9.25
2018-11-14T15:58:11.062Z,12.33
2018-11-14T16:00:43.622Z,15.08
2018-11-14T16:03:16.302Z,15.45
2018-11-14T16:05:49.125Z,12.20
2018-11-14T16:08:21.623Z,16.42
2018-11-14T16:10:54.345Z,13.32
2018-11-14T16:13:26.958Z,15.93
2018-11-14T16:15:59.563Z,15.20
2018-11-14T16:18:32.184Z,15.35
2018-11-14T16:21:05.173Z,15.75
2018-11-14T16:23:37.813Z,12.93
2018-11-14T16:26:10.389Z,16.17
2018-11-14T16:28:43.046Z,17.95
2018-11-14T16:31:15.690Z,14.30
2018-11-14T16:33:48.417Z,15.25
2018-11-14T16:36:21.059Z,19.05
2018-11-14T16:38:53.758Z,15.10
2018-11-14T16:41:26.510Z,18.17
2018-11-14T16:43:59.146Z,19.70
2018-11-14T16:46:31.741Z,16.90
2018-11-14T16:49:04.410Z,23.32
2018-11-14T16:51:37.191Z,22.13
2018-11-14T16:54:09.780Z,18.50
2018-11-14T16:56:42.376Z,16.30
2018-11-14T16:59:14.982Z,19.40
2018-11-14T17:01:47.780Z,19.10
2018-11-14T17:04:20.373Z,16.52
2018-11-14T17:06:53.107Z,17.95
2018-11-14T17:09:25.757Z,20.77
2018-11-14T17:11:58.465Z,17.02
2018-11-14T17:14:31.061Z,14.85
2018-11-14T17:17:03.819Z,31.30
2018-11-14T17:19:36.477Z,23.38
2018-11-14T17:22:09.778Z,24.25
2018-11-14T17:24:42.447Z,23.70
2018-11-14T17:27:15.303Z,24.15
2018-11-14T17:29:48.194Z,21.75
2018-11-14T17:37:02.479Z,22.22
2018-11-14T17:39:35.090Z,28.85
2018-11-14T17:42:07.901Z,25.52
2018-11-14T17:44:40.457Z,24.27
2018-11-14T17:47:13.162Z,22.73
2018-11-14T17:49:45.789Z,29.87
2018-11-14T17:52:18.409Z,22.13
2018-11-14T17:54:51.107Z,20.82
2018-11-14T17:57:23.831Z,21.50
2018-11-14T17:59:56.490Z,25.43
2018-11-14T18:02:29.192Z,20.35
2018-11-14T18:05:01.802Z,21.60
2018-11-14T18:07:34.527Z,26.55
2018-11-14T18:10:10.971Z,21.87
2018-11-14T18:12:44.722Z,25.27
2018-11-14T18:15:17.881Z,27.70
2018-11-14T18:17:51.437Z,18.48
2018-11-14T18:20:26.524Z,29.02
2018-11-14T18:22:59.491Z,23.55
2018-11-14T18:25:32.158Z,22.70
2018-11-14T18:28:05.801Z,28.73
2018-11-14T18:30:38.516Z,26.42
2018-11-14T18:33:11.190Z,26.95
2018-11-14T18:35:43.868Z,23.20
2018-11-14T18:38:16.586Z,25.45
2018-11-14T18:40:49.264Z,26.85
2018-11-14T18:43:21.969Z,27.07
2018-11-14T18:45:54.721Z,26.12
2018-11-14T18:48:27.405Z,29.82
2018-11-14T18:51:00.154Z,26.90
2018-11-14T18:53:32.815Z,27.50
2018-11-14T18:56:05.781Z,30.23
2018-11-14T18:58:38.408Z,29.55
2018-11-14T19:01:11.085Z,24.25
2018-11-14T19:03:43.749Z,25.70
2018-11-14T19:06:16.432Z,25.62
2018-11-14T19:08:49.396Z,26.77
2018-11-14T19:11:22.024Z,27.20
2018-11-14T19:13:54.642Z,23.80
2018-11-14T19:16:27.352Z,23.85
2018-11-14T19:19:00.141Z,24.65
2018-11-14T19:21:32.757Z,28.35
2018-11-14T19:24:06.383Z,20.92
2018-11-14T19:26:39.048Z,23.57
2018-11-14T19:29:11.733Z,21.35
2018-11-14T19:31:44.384Z,19.37
2018-11-14T19:34:17.130Z,24.02
2018-11-14T19:36:49.819Z,27.05
2018-11-14T19:39:22.841Z,22.25
2018-11-14T19:41:55.659Z,29.32
2018-11-14T19:44:28.370Z,23.00
2018-11-14T19:47:01.038Z,24.02
2018-11-14T19:49:33.736Z,25.60
2018-11-14T19:52:06.478Z,23.07
2018-11-14T19:54:39.097Z,22.05
2018-11-14T19:57:12.308Z,17.50
2018-11-14T19:59:44.913Z,18.35
2018-11-14T20:02:17.658Z,25.97
2018-11-14T20:04:50.541Z,22.17
2018-11-14T20:07:23.151Z,25.82
2018-11-14T20:09:55.833Z,28.57
2018-11-14T20:12:28.704Z,19.10
2018-11-14T20:15:01.453Z,19.00
2018-11-14T20:17:34.057Z,21.12
2018-11-14T20:20:09.287Z,22.40
2018-11-14T20:22:42.439Z,20.12
2018-11-14T20:25:15.182Z,19.75
2018-11-14T20:27:47.991Z,17.15
2018-11-14T20:30:25.768Z,17.98
2018-11-14T20:33:00.035Z,18.30
2018-11-14T20:35:32.711Z,25.25
2018-11-14T20:38:05.588Z,23.40
2018-11-14T20:40:39.846Z,22.07
2018-11-14T20:43:12.629Z,22.22
2018-11-14T20:45:45.386Z,20.12
2018-11-14T20:48:18.682Z,27.75
2018-11-14T20:50:51.296Z,23.45
2018-11-14T20:53:23.960Z,28.05
2018-11-14T20:55:56.664Z,23.20
2018-11-14T20:58:29.352Z,23.12
2018-11-14T21:01:02.018Z,25.32
2018-11-14T21:03:34.732Z,25.00
2018-11-14T21:06:07.484Z,30.35
2018-11-14T21:08:40.126Z,23.38
2018-11-14T21:11:12.719Z,24.00
2018-11-14T21:13:45.468Z,26.77
2018-11-14T21:16:18.167Z,27.50
2018-11-14T21:18:50.812Z,25.55
2018-11-14T21:21:23.538Z,27.35
2018-11-14T21:23:56.202Z,26.90
2018-11-14T21:26:28.864Z,20.60
2018-11-14T21:29:01.499Z,21.48
2018-11-14T21:31:34.209Z,22.42
2018-11-14T21:34:06.826Z,24.67
2018-11-14T21:36:39.505Z,24.50
2018-11-14T21:39:13.587Z,21.37
2018-11-14T21:41:46.430Z,23.12
2018-11-14T21:44:19.037Z,30.27
2018-11-14T21:46:51.821Z,25.95
2018-11-14T21:49:26.315Z,19.15
2018-11-14T21:51:59.535Z,23.47
2018-11-14T21:54:32.152Z,24.40
2018-11-14T21:57:05.090Z,28.73
2018-11-14T21:59:37.843Z,26.02
2018-11-14T22:02:10.425Z,22.82
2018-11-14T22:04:43.061Z,24.47
2018-11-14T22:07:15.708Z,25.35
2018-11-14T22:09:48.331Z,20.50
2018-11-14T22:12:20.908Z,18.85
2018-11-14T22:14:53.553Z,27.75
2018-11-14T22:17:26.939Z,28.73
2018-11-14T22:19:59.605Z,29.30
2018-11-14T22:22:32.215Z,30.52
2018-11-14T22:25:05.223Z,32.13
2018-11-14T22:27:38.519Z,38.28
2018-11-14T22:30:13.628Z,30.50
2018-11-14T22:32:47.160Z,30.27
2018-11-14T22:35:21.143Z,32.93
2018-11-14T22:37:53.773Z,37.30
2018-11-14T22:40:28.444Z,35.45
2018-11-14T22:43:01.115Z,38.38
2018-11-14T22:45:33.781Z,30.37
2018-11-14T22:48:06.332Z,38.80
2018-11-14T22:50:39.015Z,35.30
2018-11-14T22:53:11.556Z,37.25
2018-11-14T22:55:44.159Z,34.50
2018-11-14T22:58:16.832Z,42.15
2018-11-14T23:00:49.446Z,36.23
2018-11-14T23:03:22.077Z,42.15
2018-11-14T23:05:54.716Z,41.90
2018-11-14T23:08:27.387Z,40.83
2018-11-14T23:10:59.957Z,41.42
2018-11-14T23:13:32.707Z,38.45
2018-11-14T23:16:05.928Z,42.88
2018-11-14T23:18:38.603Z,39.05
2018-11-14T23:21:11.176Z,40.80
2018-11-14T23:23:43.724Z,46.58
2018-11-14T23:26:16.254Z,42.30
2018-11-14T23:28:48.915Z,42.60
2018-11-14T23:31:21.515Z,42.08
2018-11-14T23:33:54.115Z,55.10
2018-11-14T23:36:26.774Z,43.65
2018-11-14T23:38:59.323Z,43.00
2018-11-14T23:41:31.974Z,43.92
2018-11-14T23:44:04.635Z,49.90
2018-11-14T23:46:37.176Z,53.13
2018-11-14T23:49:09.777Z,49.38
2018-11-14T23:51:42.350Z,55.15
2018-11-14T23:54:14.917Z,48.25
2018-11-14T23:56:47.490Z,47.95
2018-11-14T23:59:20.085Z,51.73
